sensor_id;sensor_type;location;lat;lon;timestamp;P1;durP1;ratioP1;P2;durP2;ratioP2
27365;SDS011;14837;57.148;-2.144;2022-12-10T00:00:26;2.90;;;1.90;;
27365;SDS011;14837;57.148;-2.144;2022-12-10T00:02:53;3.30;;;2.13;;
27365;SDS011;14837;57.148;-2.144;2022-12-10T00:05:20;5.72;;;2.83;;
27365;SDS011;14837;57.148;-2.144;2022-12-10T00:07:47;6.03;;;3.40;;
27365;SDS011;14837;57.148;-2.144;2022-12-10T00:10:13;5.82;;;2.70;;
27365;SDS011;14837;57.148;-2.144;2022-12-10T00:12:41;11.60;;;2.17;;
27365;SDS011;14837;57.148;-2.144;2022-12-10T00:15:07;3.58;;;1.65;;
27365;SDS011;14837;57.148;-2.144;2022-12-10T00:17:34;3.78;;;2.13;;
27365;SDS011;14837;57.148;-2.144;2022-12-10T00:20:01;4.35;;;1.63;;
27365;SDS011;14837;57.148;-2.144;2022-12-10T00:22:28;5.72;;;3.33;;
27365;SDS011;14837;57.148;-2.144;2022-12-10T00:24:54;3.97;;;1.40;;
27365;SDS011;14837;57.148;-2.144;2022-12-10T00:27:21;2.17;;;1.80;;
27365;SDS011;14837;57.148;-2.144;2022-12-10T00:29:47;3.95;;;2.42;;
27365;SDS011;14837;57.148;-2.144;2022-12-10T00:32:14;1.70;;;1.33;;
27365;SDS011;14837;57.148;-2.144;2022-12-10T00:34:40;2.25;;;1.58;;
27365;SDS011;14837;57.148;-2.144;2022-12-10T00:37:07;5.82;;;1.77;;
27365;SDS011;14837;57.148;-2.144;2022-12-10T00:39:33;5.00;;;3.28;;
27365;SDS011;14837;57.148;-2.144;2022-12-10T00:42:01;6.32;;;2.55;;
27365;SDS011;14837;57.148;-2.144;2022-12-10T00:44:28;10.98;;;4.68;;
27365;SDS011;14837;57.148;-2.144;2022-12-10T00:46:54;6.57;;;3.33;;
27365;SDS011;14837;57.148;-2.144;2022-12-10T00:49:21;6.93;;;3.78;;
27365;SDS011;14837;57.148;-2.144;2022-12-10T00:51:49;7.90;;;4.57;;
27365;SDS011;14837;57.148;-2.144;2022-12-10T00:54:16;9.40;;;3.00;;
27365;SDS011;14837;57.148;-2.144;2022-12-10T00:56:42;5.97;;;2.47;;
27365;SDS011;14837;57.148;-2.144;2022-12-10T00:59:09;6.25;;;3.97;;
27365;SDS011;14837;57.148;-2.144;2022-12-10T01:01:36;7.78;;;4.50;;
27365;SDS011;14837;57.148;-2.144;2022-12-10T01:04:04;10.10;;;3.83;;
27365;SDS011;14837;57.148;-2.144;2022-12-10T01:06:36;9.10;;;3.63;;
27365;SDS011;14837;57.148;-2.144;2022-12-10T01:09:04;8.35;;;2.75;;
27365;SDS011;14837;57.148;-2.144;2022-12-10T01:11:32;11.45;;;4.43;;
27365;SDS011;14837;57.148;-2.144;2022-12-10T01:13:59;8.68;;;3.45;;
27365;SDS011;14837;57.148;-2.144;2022-12-10T01:16:25;4.30;;;3.10;;
27365;SDS011;14837;57.148;-2.144;2022-12-10T01:18:53;6.15;;;2.33;;
27365;SDS011;14837;57.148;-2.144;2022-12-10T01:21:19;6.28;;;2.65;;
27365;SDS011;14837;57.148;-2.144;2022-12-10T01:23:47;4.57;;;2.80;;
27365;SDS011;14837;57.148;-2.144;2022-12-10T01:26:15;7.28;;;2.25;;
27365;SDS011;14837;57.148;-2.144;2022-12-10T01:28:42;4.60;;;3.20;;
27365;SDS011;14837;57.148;-2.144;2022-12-10T01:31:15;11.35;;;3.85;;
27365;SDS011;14837;57.148;-2.144;2022-12-10T01:33:42;3.38;;;1.88;;
27365;SDS011;14837;57.148;-2.144;2022-12-10T01:36:10;4.32;;;3.00;;
27365;SDS011;14837;57.148;-2.144;2022-12-10T01:38:37;6.25;;;2.10;;
27365;SDS011;14837;57.148;-2.144;2022-12-10T01:41:05;5.45;;;1.77;;
27365;SDS011;14837;57.148;-2.144;2022-12-10T01:46:17;2.10;;;1.67;;
27365;SDS011;14837;57.148;-2.144;2022-12-10T01:48:44;3.38;;;1.83;;
27365;SDS011;14837;57.148;-2.144;2022-12-10T01:51:11;4.97;;;1.80;;
27365;SDS011;14837;57.148;-2.144;2022-12-10T01:53:38;4.10;;;1.20;;
27365;SDS011;14837;57.148;-2.144;2022-12-10T01:56:05;3.63;;;1.80;;
27365;SDS011;14837;57.148;-2.144;2022-12-10T01:58:31;2.72;;;1.85;;
27365;SDS011;14837;57.148;-2.144;2022-12-10T02:03:29;5.00;;;1.90;;
27365;SDS011;14837;57.148;-2.144;2022-12-10T02:06:06;3.42;;;1.67;;
27365;SDS011;14837;57.148;-2.144;2022-12-10T02:09:21;4.78;;;1.00;;
27365;SDS011;14837;57.148;-2.144;2022-12-10T02:11:37;3.80;;;2.15;;
27365;SDS011;14837;57.148;-2.144;2022-12-10T02:14:15;5.25;;;1.98;;
27365;SDS011;14837;57.148;-2.144;2022-12-10T02:16:55;8.27;;;2.53;;
27365;SDS011;14837;57.148;-2.144;2022-12-10T02:22:07;9.05;;;2.60;;
27365;SDS011;14837;57.148;-2.144;2022-12-10T02:24:35;3.60;;;2.40;;
27365;SDS011;14837;57.148;-2.144;2022-12-10T02:29:29;6.30;;;3.53;;
27365;SDS011;14837;57.148;-2.144;2022-12-10T02:31:59;3.35;;;2.00;;
27365;SDS011;14837;57.148;-2.144;2022-12-10T02:34:26;3.53;;;1.63;;
27365;SDS011;14837;57.148;-2.144;2022-12-10T02:36:57;3.78;;;1.67;;
27365;SDS011;14837;57.148;-2.144;2022-12-10T02:39:26;4.97;;;1.70;;
27365;SDS011;14837;57.148;-2.144;2022-12-10T02:41:54;6.13;;;1.55;;
27365;SDS011;14837;57.148;-2.144;2022-12-10T02:44:21;2.95;;;1.58;;
27365;SDS011;14837;57.148;-2.144;2022-12-10T02:46:49;7.38;;;3.42;;
27365;SDS011;14837;57.148;-2.144;2022-12-10T02:49:17;7.30;;;2.33;;
27365;SDS011;14837;57.148;-2.144;2022-12-10T02:51:43;5.47;;;2.78;;
27365;SDS011;14837;57.148;-2.144;2022-12-10T02:56:58;6.60;;;1.45;;
27365;SDS011;14837;57.148;-2.144;2022-12-10T02:59:30;3.55;;;1.38;;
27365;SDS011;14837;57.148;-2.144;2022-12-10T03:04:28;3.72;;;1.20;;
27365;SDS011;14837;57.148;-2.144;2022-12-10T03:07:01;5.10;;;1.48;;
27365;SDS011;14837;57.148;-2.144;2022-12-10T03:09:37;5.00;;;2.13;;
27365;SDS011;14837;57.148;-2.144;2022-12-10T03:12:15;8.35;;;1.27;;
27365;SDS011;14837;57.148;-2.144;2022-12-10T03:14:43;3.63;;;1.40;;
27365;SDS011;14837;57.148;-2.144;2022-12-10T03:17:10;2.42;;;1.08;;
27365;SDS011;14837;57.148;-2.144;2022-12-10T03:19:40;2.13;;;1.00;;
27365;SDS011;14837;57.148;-2.144;2022-12-10T03:22:07;2.13;;;0.98;;
27365;SDS011;14837;57.148;-2.144;2022-12-10T03:24:35;1.85;;;0.90;;
27365;SDS011;14837;57.148;-2.144;2022-12-10T03:27:03;2.83;;;1.10;;
27365;SDS011;14837;57.148;-2.144;2022-12-10T03:29:34;2.33;;;0.85;;
27365;SDS011;14837;57.148;-2.144;2022-12-10T03:32:02;4.88;;;1.15;;
27365;SDS011;14837;57.148;-2.144;2022-12-10T03:34:29;4.85;;;0.90;;
27365;SDS011;14837;57.148;-2.144;2022-12-10T03:36:56;3.75;;;1.15;;
27365;SDS011;14837;57.148;-2.144;2022-12-10T03:39:23;2.10;;;0.95;;
27365;SDS011;14837;57.148;-2.144;2022-12-10T03:41:50;3.17;;;0.85;;
27365;SDS011;14837;57.148;-2.144;2022-12-10T03:44:29;4.05;;;0.98;;
27365;SDS011;14837;57.148;-2.144;2022-12-10T03:46:56;5.28;;;0.85;;
27365;SDS011;14837;57.148;-2.144;2022-12-10T03:49:23;1.20;;;0.85;;
27365;SDS011;14837;57.148;-2.144;2022-12-10T03:51:50;1.83;;;0.77;;
27365;SDS011;14837;57.148;-2.144;2022-12-10T03:54:16;2.53;;;1.10;;
27365;SDS011;14837;57.148;-2.144;2022-12-10T03:56:43;4.15;;;1.00;;
27365;SDS011;14837;57.148;-2.144;2022-12-10T03:59:09;6.70;;;1.48;;
27365;SDS011;14837;57.148;-2.144;2022-12-10T04:01:36;3.30;;;1.08;;
27365;SDS011;14837;57.148;-2.144;2022-12-10T04:04:03;5.88;;;1.45;;
27365;SDS011;14837;57.148;-2.144;2022-12-10T04:06:29;2.72;;;0.88;;
27365;SDS011;14837;57.148;-2.144;2022-12-10T04:08:56;3.50;;;1.70;;
27365;SDS011;14837;57.148;-2.144;2022-12-10T04:11:24;2.80;;;0.98;;
27365;SDS011;14837;57.148;-2.144;2022-12-10T04:13:51;3.83;;;1.50;;
27365;SDS011;14837;57.148;-2.144;2022-12-10T04:16:36;3.88;;;0.80;;
27365;SDS011;14837;57.148;-2.144;2022-12-10T04:19:04;1.27;;;0.80;;
27365;SDS011;14837;57.148;-2.144;2022-12-10T04:21:32;3.03;;;1.20;;
27365;SDS011;14837;57.148;-2.144;2022-12-10T04:24:18;5.20;;;1.17;;
27365;SDS011;14837;57.148;-2.144;2022-12-10T04:27:04;5.28;;;1.58;;
27365;SDS011;14837;57.148;-2.144;2022-12-10T04:29:31;4.07;;;0.80;;
27365;SDS011;14837;57.148;-2.144;2022-12-10T04:31:58;1.80;;;0.77;;
27365;SDS011;14837;57.148;-2.144;2022-12-10T04:34:25;2.92;;;1.13;;
27365;SDS011;14837;57.148;-2.144;2022-12-10T04:36:51;2.55;;;1.30;;
27365;SDS011;14837;57.148;-2.144;2022-12-10T04:39:18;2.55;;;0.70;;
27365;SDS011;14837;57.148;-2.144;2022-12-10T04:41:47;5.75;;;1.33;;
27365;SDS011;14837;57.148;-2.144;2022-12-10T04:44:13;2.85;;;1.02;;
27365;SDS011;14837;57.148;-2.144;2022-12-10T04:46:40;3.05;;;1.30;;
27365;SDS011;14837;57.148;-2.144;2022-12-10T04:49:07;3.80;;;1.50;;
27365;SDS011;14837;57.148;-2.144;2022-12-10T04:51:33;6.22;;;1.50;;
27365;SDS011;14837;57.148;-2.144;2022-12-10T04:54:00;3.83;;;0.95;;
27365;SDS011;14837;57.148;-2.144;2022-12-10T04:56:27;3.25;;;1.35;;
27365;SDS011;14837;57.148;-2.144;2022-12-10T04:58:54;3.50;;;2.03;;
27365;SDS011;14837;57.148;-2.144;2022-12-10T05:01:21;2.08;;;0.95;;
27365;SDS011;14837;57.148;-2.144;2022-12-10T05:03:48;2.15;;;1.10;;
27365;SDS011;14837;57.148;-2.144;2022-12-10T05:06:15;3.33;;;1.00;;
27365;SDS011;14837;57.148;-2.144;2022-12-10T05:08:42;3.47;;;1.58;;
27365;SDS011;14837;57.148;-2.144;2022-12-10T05:11:12;2.00;;;1.33;;
27365;SDS011;14837;57.148;-2.144;2022-12-10T05:13:39;4.18;;;1.38;;
27365;SDS011;14837;57.148;-2.144;2022-12-10T05:16:06;3.17;;;1.00;;
27365;SDS011;14837;57.148;-2.144;2022-12-10T05:18:33;1.15;;;0.80;;
27365;SDS011;14837;57.148;-2.144;2022-12-10T05:21:00;4.30;;;0.77;;
27365;SDS011;14837;57.148;-2.144;2022-12-10T05:23:27;4.25;;;1.10;;
27365;SDS011;14837;57.148;-2.144;2022-12-10T05:26:01;2.28;;;1.10;;
27365;SDS011;14837;57.148;-2.144;2022-12-10T05:28:28;3.45;;;1.00;;
27365;SDS011;14837;57.148;-2.144;2022-12-10T05:30:55;2.75;;;1.67;;
27365;SDS011;14837;57.148;-2.144;2022-12-10T05:33:22;2.42;;;0.77;;
27365;SDS011;14837;57.148;-2.144;2022-12-10T05:36:07;3.25;;;0.80;;
27365;SDS011;14837;57.148;-2.144;2022-12-10T05:38:33;2.70;;;1.20;;
27365;SDS011;14837;57.148;-2.144;2022-12-10T05:41:04;1.88;;;1.00;;
27365;SDS011;14837;57.148;-2.144;2022-12-10T05:43:31;2.53;;;0.70;;
27365;SDS011;14837;57.148;-2.144;2022-12-10T05:46:01;0.68;;;0.63;;
27365;SDS011;14837;57.148;-2.144;2022-12-10T05:48:28;1.55;;;0.45;;
27365;SDS011;14837;57.148;-2.144;2022-12-10T05:50:55;3.20;;;0.75;;
27365;SDS011;14837;57.148;-2.144;2022-12-10T05:53:21;3.35;;;0.70;;
27365;SDS011;14837;57.148;-2.144;2022-12-10T05:55:48;1.80;;;0.80;;
27365;SDS011;14837;57.148;-2.144;2022-12-10T05:58:15;1.00;;;0.77;;
27365;SDS011;14837;57.148;-2.144;2022-12-10T06:00:41;3.50;;;0.60;;
27365;SDS011;14837;57.148;-2.144;2022-12-10T06:03:08;1.75;;;0.60;;
27365;SDS011;14837;57.148;-2.144;2022-12-10T06:05:38;2.15;;;0.85;;
27365;SDS011;14837;57.148;-2.144;2022-12-10T06:08:05;3.10;;;0.60;;
27365;SDS011;14837;57.148;-2.144;2022-12-10T06:10:35;4.20;;;0.80;;
27365;SDS011;14837;57.148;-2.144;2022-12-10T06:13:02;6.47;;;0.80;;
27365;SDS011;14837;57.148;-2.144;2022-12-10T06:15:29;2.58;;;1.13;;
27365;SDS011;14837;57.148;-2.144;2022-12-10T06:17:56;2.30;;;0.95;;
27365;SDS011;14837;57.148;-2.144;2022-12-10T06:20:23;3.20;;;0.90;;
27365;SDS011;14837;57.148;-2.144;2022-12-10T06:22:50;6.25;;;0.95;;
27365;SDS011;14837;57.148;-2.144;2022-12-10T06:25:16;4.47;;;0.88;;
27365;SDS011;14837;57.148;-2.144;2022-12-10T06:27:43;1.65;;;0.95;;
27365;SDS011;14837;57.148;-2.144;2022-12-10T06:30:10;2.60;;;0.60;;
27365;SDS011;14837;57.148;-2.144;2022-12-10T06:32:37;1.67;;;0.55;;
27365;SDS011;14837;57.148;-2.144;2022-12-10T06:35:03;1.48;;;0.40;;
27365;SDS011;14837;57.148;-2.144;2022-12-10T06:37:30;0.60;;;0.60;;
27365;SDS011;14837;57.148;-2.144;2022-12-10T06:39:56;2.33;;;0.73;;
27365;SDS011;14837;57.148;-2.144;2022-12-10T06:42:23;3.47;;;0.80;;
27365;SDS011;14837;57.148;-2.144;2022-12-10T06:44:49;4.28;;;0.73;;
27365;SDS011;14837;57.148;-2.144;2022-12-10T06:47:16;1.98;;;0.70;;
27365;SDS011;14837;57.148;-2.144;2022-12-10T06:49:42;6.72;;;0.90;;
27365;SDS011;14837;57.148;-2.144;2022-12-10T06:52:09;4.15;;;0.80;;
27365;SDS011;14837;57.148;-2.144;2022-12-10T06:54:36;3.03;;;0.77;;
27365;SDS011;14837;57.148;-2.144;2022-12-10T06:57:02;1.77;;;0.82;;
27365;SDS011;14837;57.148;-2.144;2022-12-10T06:59:29;3.38;;;0.82;;
27365;SDS011;14837;57.148;-2.144;2022-12-10T07:01:55;4.15;;;0.68;;
27365;SDS011;14837;57.148;-2.144;2022-12-10T07:04:22;3.83;;;0.93;;
27365;SDS011;14837;57.148;-2.144;2022-12-10T07:06:48;1.33;;;0.80;;
27365;SDS011;14837;57.148;-2.144;2022-12-10T07:09:15;1.48;;;0.52;;
27365;SDS011;14837;57.148;-2.144;2022-12-10T07:11:42;4.57;;;0.88;;
27365;SDS011;14837;57.148;-2.144;2022-12-10T07:14:13;2.40;;;0.68;;
27365;SDS011;14837;57.148;-2.144;2022-12-10T07:16:41;1.92;;;0.77;;
27365;SDS011;14837;57.148;-2.144;2022-12-10T07:19:08;1.40;;;0.73;;
27365;SDS011;14837;57.148;-2.144;2022-12-10T07:21:36;1.27;;;0.60;;
27365;SDS011;14837;57.148;-2.144;2022-12-10T07:24:04;2.35;;;1.05;;
27365;SDS011;14837;57.148;-2.144;2022-12-10T07:26:32;5.43;;;0.98;;
27365;SDS011;14837;57.148;-2.144;2022-12-10T07:28:59;2.40;;;1.02;;
27365;SDS011;14837;57.148;-2.144;2022-12-10T07:31:26;4.07;;;1.10;;
27365;SDS011;14837;57.148;-2.144;2022-12-10T07:33:52;3.42;;;0.88;;
27365;SDS011;14837;57.148;-2.144;2022-12-10T07:36:20;5.95;;;1.83;;
27365;SDS011;14837;57.148;-2.144;2022-12-10T07:38:46;5.72;;;1.13;;
27365;SDS011;14837;57.148;-2.144;2022-12-10T07:41:13;1.73;;;0.90;;
27365;SDS011;14837;57.148;-2.144;2022-12-10T07:43:40;4.40;;;1.00;;
27365;SDS011;14837;57.148;-2.144;2022-12-10T07:46:09;5.07;;;0.80;;
27365;SDS011;14837;57.148;-2.144;2022-12-10T07:48:36;2.28;;;0.73;;
27365;SDS011;14837;57.148;-2.144;2022-12-10T07:51:03;1.48;;;0.80;;
27365;SDS011;14837;57.148;-2.144;2022-12-10T07:53:30;2.55;;;0.88;;
27365;SDS011;14837;57.148;-2.144;2022-12-10T07:55:57;3.33;;;0.80;;
27365;SDS011;14837;57.148;-2.144;2022-12-10T07:58:23;4.57;;;0.90;;
27365;SDS011;14837;57.148;-2.144;2022-12-10T08:00:50;3.58;;;0.70;;
27365;SDS011;14837;57.148;-2.144;2022-12-10T08:03:17;3.33;;;1.05;;
27365;SDS011;14837;57.148;-2.144;2022-12-10T08:05:43;5.05;;;0.80;;
27365;SDS011;14837;57.148;-2.144;2022-12-10T08:08:10;2.00;;;0.80;;
27365;SDS011;14837;57.148;-2.144;2022-12-10T08:10:37;1.65;;;0.65;;
27365;SDS011;14837;57.148;-2.144;2022-12-10T08:13:04;2.40;;;0.60;;
27365;SDS011;14837;57.148;-2.144;2022-12-10T08:15:31;1.60;;;0.63;;
27365;SDS011;14837;57.148;-2.144;2022-12-10T08:17:57;7.05;;;0.68;;
27365;SDS011;14837;57.148;-2.144;2022-12-10T08:20:24;1.25;;;0.55;;
27365;SDS011;14837;57.148;-2.144;2022-12-10T08:22:51;2.50;;;0.60;;
27365;SDS011;14837;57.148;-2.144;2022-12-10T08:25:17;1.27;;;0.63;;
27365;SDS011;14837;57.148;-2.144;2022-12-10T08:27:44;1.90;;;0.70;;
27365;SDS011;14837;57.148;-2.144;2022-12-10T08:30:10;3.85;;;0.68;;
27365;SDS011;14837;57.148;-2.144;2022-12-10T08:32:37;7.25;;;1.05;;
27365;SDS011;14837;57.148;-2.144;2022-12-10T08:35:03;2.95;;;0.77;;
27365;SDS011;14837;57.148;-2.144;2022-12-10T08:37:30;3.72;;;0.75;;
27365;SDS011;14837;57.148;-2.144;2022-12-10T08:39:57;1.75;;;0.50;;
27365;SDS011;14837;57.148;-2.144;2022-12-10T08:42:23;4.82;;;1.17;;
27365;SDS011;14837;57.148;-2.144;2022-12-10T08:44:50;3.35;;;0.68;;
27365;SDS011;14837;57.148;-2.144;2022-12-10T08:47:16;0.82;;;0.60;;
27365;SDS011;14837;57.148;-2.144;2022-12-10T08:49:43;1.63;;;0.52;;
27365;SDS011;14837;57.148;-2.144;2022-12-10T08:52:09;4.25;;;0.68;;
27365;SDS011;14837;57.148;-2.144;2022-12-10T08:54:36;3.35;;;0.82;;
27365;SDS011;14837;57.148;-2.144;2022-12-10T08:57:02;5.00;;;0.40;;
27365;SDS011;14837;57.148;-2.144;2022-12-10T08:59:29;3.03;;;0.50;;
27365;SDS011;14837;57.148;-2.144;2022-12-10T09:01:56;3.03;;;0.52;;
27365;SDS011;14837;57.148;-2.144;2022-12-10T09:04:22;1.27;;;0.95;;
27365;SDS011;14837;57.148;-2.144;2022-12-10T09:06:49;2.03;;;0.50;;
27365;SDS011;14837;57.148;-2.144;2022-12-10T09:09:16;2.15;;;0.50;;
27365;SDS011;14837;57.148;-2.144;2022-12-10T09:11:43;2.92;;;0.60;;
27365;SDS011;14837;57.148;-2.144;2022-12-10T09:14:12;0.50;;;0.50;;
27365;SDS011;14837;57.148;-2.144;2022-12-10T09:16:38;4.95;;;0.77;;
27365;SDS011;14837;57.148;-2.144;2022-12-10T09:19:05;4.05;;;0.73;;
27365;SDS011;14837;57.148;-2.144;2022-12-10T09:21:32;1.13;;;0.40;;
27365;SDS011;14837;57.148;-2.144;2022-12-10T09:23:59;1.80;;;0.50;;
27365;SDS011;14837;57.148;-2.144;2022-12-10T09:26:25;4.30;;;0.70;;
27365;SDS011;14837;57.148;-2.144;2022-12-10T09:28:52;1.80;;;0.90;;
27365;SDS011;14837;57.148;-2.144;2022-12-10T09:31:19;0.60;;;0.40;;
27365;SDS011;14837;57.148;-2.144;2022-12-10T09:33:47;0.80;;;0.50;;
27365;SDS011;14837;57.148;-2.144;2022-12-10T09:36:13;2.15;;;0.65;;
27365;SDS011;14837;57.148;-2.144;2022-12-10T09:38:41;1.98;;;0.60;;
27365;SDS011;14837;57.148;-2.144;2022-12-10T09:43:56;3.92;;;0.95;;
27365;SDS011;14837;57.148;-2.144;2022-12-10T09:46:39;2.05;;;0.90;;
27365;SDS011;14837;57.148;-2.144;2022-12-10T09:51:34;6.15;;;1.85;;
27365;SDS011;14837;57.148;-2.144;2022-12-10T09:54:02;3.50;;;1.20;;
27365;SDS011;14837;57.148;-2.144;2022-12-10T09:56:33;2.97;;;1.40;;
27365;SDS011;14837;57.148;-2.144;2022-12-10T09:59:10;4.82;;;1.88;;
27365;SDS011;14837;57.148;-2.144;2022-12-10T10:01:38;6.90;;;1.23;;
27365;SDS011;14837;57.148;-2.144;2022-12-10T10:04:05;4.63;;;1.40;;
27365;SDS011;14837;57.148;-2.144;2022-12-10T10:06:37;7.45;;;1.58;;
27365;SDS011;14837;57.148;-2.144;2022-12-10T10:09:07;5.80;;;1.83;;
27365;SDS011;14837;57.148;-2.144;2022-12-10T10:11:37;2.80;;;1.50;;
27365;SDS011;14837;57.148;-2.144;2022-12-10T10:14:05;3.10;;;1.15;;
27365;SDS011;14837;57.148;-2.144;2022-12-10T10:16:40;2.95;;;1.70;;
27365;SDS011;14837;57.148;-2.144;2022-12-10T10:19:15;5.43;;;2.17;;
27365;SDS011;14837;57.148;-2.144;2022-12-10T10:21:46;1.02;;;0.70;;
27365;SDS011;14837;57.148;-2.144;2022-12-10T10:24:13;2.50;;;1.15;;
27365;SDS011;14837;57.148;-2.144;2022-12-10T10:26:40;1.08;;;0.63;;
27365;SDS011;14837;57.148;-2.144;2022-12-10T10:29:08;0.73;;;0.40;;
27365;SDS011;14837;57.148;-2.144;2022-12-10T10:31:38;1.58;;;0.52;;
27365;SDS011;14837;57.148;-2.144;2022-12-10T10:34:06;2.30;;;0.50;;
27365;SDS011;14837;57.148;-2.144;2022-12-10T10:36:37;1.67;;;0.88;;
27365;SDS011;14837;57.148;-2.144;2022-12-10T10:39:11;1.05;;;0.57;;
27365;SDS011;14837;57.148;-2.144;2022-12-10T10:41:46;26.92;;;10.90;;
27365;SDS011;14837;57.148;-2.144;2022-12-10T10:44:23;28.10;;;13.60;;
27365;SDS011;14837;57.148;-2.144;2022-12-10T10:46:52;7.68;;;5.50;;
27365;SDS011;14837;57.148;-2.144;2022-12-10T10:51:45;5.72;;;1.60;;
27365;SDS011;14837;57.148;-2.144;2022-12-10T10:54:12;1.42;;;0.73;;
27365;SDS011;14837;57.148;-2.144;2022-12-10T10:59:31;1.83;;;0.85;;
27365;SDS011;14837;57.148;-2.144;2022-12-10T11:04:46;1.15;;;0.77;;
27365;SDS011;14837;57.148;-2.144;2022-12-10T11:09:47;2.40;;;1.43;;
27365;SDS011;14837;57.148;-2.144;2022-12-10T11:12:53;0.90;;;0.80;;
27365;SDS011;14837;57.148;-2.144;2022-12-10T11:17:52;1.35;;;1.00;;
27365;SDS011;14837;57.148;-2.144;2022-12-10T11:20:21;1.25;;;1.10;;
27365;SDS011;14837;57.148;-2.144;2022-12-10T11:22:49;1.65;;;0.80;;
27365;SDS011;14837;57.148;-2.144;2022-12-10T11:25:16;2.55;;;1.25;;
27365;SDS011;14837;57.148;-2.144;2022-12-10T11:30:14;0.88;;;0.80;;
27365;SDS011;14837;57.148;-2.144;2022-12-10T11:35:15;1.13;;;0.85;;
27365;SDS011;14837;57.148;-2.144;2022-12-10T11:37:59;0.65;;;0.57;;
27365;SDS011;14837;57.148;-2.144;2022-12-10T11:48:08;4.65;;;1.33;;
27365;SDS011;14837;57.148;-2.144;2022-12-10T11:54:12;5.70;;;1.27;;
27365;SDS011;14837;57.148;-2.144;2022-12-10T11:56:09;1.60;;;0.77;;
27365;SDS011;14837;57.148;-2.144;2022-12-10T12:06:40;34.67;;;14.82;;
27365;SDS011;14837;57.148;-2.144;2022-12-10T12:17:05;9.55;;;2.55;;
27365;SDS011;14837;57.148;-2.144;2022-12-10T12:19:36;9.18;;;4.68;;
27365;SDS011;14837;57.148;-2.144;2022-12-10T12:22:14;9.82;;;3.70;;
27365;SDS011;14837;57.148;-2.144;2022-12-10T12:24:41;7.90;;;1.75;;
27365;SDS011;14837;57.148;-2.144;2022-12-10T12:27:22;6.10;;;1.40;;
27365;SDS011;14837;57.148;-2.144;2022-12-10T12:32:31;3.83;;;0.90;;
27365;SDS011;14837;57.148;-2.144;2022-12-10T12:35:06;3.58;;;1.70;;
27365;SDS011;14837;57.148;-2.144;2022-12-10T12:37:38;7.75;;;1.35;;
27365;SDS011;14837;57.148;-2.144;2022-12-10T12:43:02;3.40;;;1.08;;
27365;SDS011;14837;57.148;-2.144;2022-12-10T12:45:42;3.13;;;0.90;;
27365;SDS011;14837;57.148;-2.144;2022-12-10T12:48:19;1.67;;;0.90;;
27365;SDS011;14837;57.148;-2.144;2022-12-10T12:51:32;2.17;;;0.80;;
27365;SDS011;14837;57.148;-2.144;2022-12-10T12:53:38;2.50;;;0.68;;
27365;SDS011;14837;57.148;-2.144;2022-12-10T12:56:05;1.90;;;0.82;;
27365;SDS011;14837;57.148;-2.144;2022-12-10T12:58:39;1.85;;;0.65;;
27365;SDS011;14837;57.148;-2.144;2022-12-10T13:04:02;1.48;;;0.55;;
27365;SDS011;14837;57.148;-2.144;2022-12-10T13:06:31;2.25;;;0.88;;
27365;SDS011;14837;57.148;-2.144;2022-12-10T13:27:02;2.15;;;1.42;;
27365;SDS011;14837;57.148;-2.144;2022-12-10T13:29:29;2.20;;;1.33;;
27365;SDS011;14837;57.148;-2.144;2022-12-10T13:32:13;1.70;;;1.60;;
27365;SDS011;14837;57.148;-2.144;2022-12-10T13:34:40;0.98;;;0.70;;
27365;SDS011;14837;57.148;-2.144;2022-12-10T13:39:47;0.77;;;0.73;;
27365;SDS011;14837;57.148;-2.144;2022-12-10T13:47:50;2.75;;;1.30;;
27365;SDS011;14837;57.148;-2.144;2022-12-10T13:50:42;1.48;;;1.25;;
27365;SDS011;14837;57.148;-2.144;2022-12-10T14:01:13;1.77;;;1.17;;
27365;SDS011;14837;57.148;-2.144;2022-12-10T14:06:13;2.13;;;1.42;;
27365;SDS011;14837;57.148;-2.144;2022-12-10T14:08:52;3.20;;;1.52;;
27365;SDS011;14837;57.148;-2.144;2022-12-10T14:11:20;3.15;;;1.90;;
27365;SDS011;14837;57.148;-2.144;2022-12-10T14:13:49;2.78;;;1.52;;
27365;SDS011;14837;57.148;-2.144;2022-12-10T14:16:18;2.13;;;1.73;;
27365;SDS011;14837;57.148;-2.144;2022-12-10T14:18:50;2.35;;;1.83;;
27365;SDS011;14837;57.148;-2.144;2022-12-10T14:21:18;4.32;;;2.13;;
27365;SDS011;14837;57.148;-2.144;2022-12-10T14:23:45;3.10;;;1.90;;
27365;SDS011;14837;57.148;-2.144;2022-12-10T14:26:42;3.53;;;1.55;;
27365;SDS011;14837;57.148;-2.144;2022-12-10T14:31:35;2.95;;;2.15;;
27365;SDS011;14837;57.148;-2.144;2022-12-10T14:34:03;2.80;;;2.08;;
27365;SDS011;14837;57.148;-2.144;2022-12-10T14:36:31;3.40;;;2.42;;
27365;SDS011;14837;57.148;-2.144;2022-12-10T14:38:59;3.33;;;2.17;;
27365;SDS011;14837;57.148;-2.144;2022-12-10T14:41:26;3.55;;;2.70;;
27365;SDS011;14837;57.148;-2.144;2022-12-10T14:43:54;6.40;;;2.90;;
27365;SDS011;14837;57.148;-2.144;2022-12-10T14:46:24;4.88;;;2.53;;
27365;SDS011;14837;57.148;-2.144;2022-12-10T14:48:52;4.45;;;2.75;;
27365;SDS011;14837;57.148;-2.144;2022-12-10T14:51:20;6.07;;;2.45;;
27365;SDS011;14837;57.148;-2.144;2022-12-10T14:53:47;5.43;;;2.05;;
27365;SDS011;14837;57.148;-2.144;2022-12-10T14:56:17;6.07;;;2.05;;
27365;SDS011;14837;57.148;-2.144;2022-12-10T15:03:51;3.90;;;1.35;;
27365;SDS011;14837;57.148;-2.144;2022-12-10T15:06:18;3.17;;;2.00;;
27365;SDS011;14837;57.148;-2.144;2022-12-10T15:08:45;1.50;;;1.10;;
27365;SDS011;14837;57.148;-2.144;2022-12-10T15:11:16;3.33;;;1.05;;
27365;SDS011;14837;57.148;-2.144;2022-12-10T15:13:47;2.97;;;1.20;;
27365;SDS011;14837;57.148;-2.144;2022-12-10T15:16:20;4.38;;;1.08;;
27365;SDS011;14837;57.148;-2.144;2022-12-10T15:18:53;3.72;;;1.70;;
27365;SDS011;14837;57.148;-2.144;2022-12-10T15:21:22;4.28;;;1.45;;
27365;SDS011;14837;57.148;-2.144;2022-12-10T15:23:50;5.18;;;1.40;;
27365;SDS011;14837;57.148;-2.144;2022-12-10T15:28:47;4.05;;;2.70;;
27365;SDS011;14837;57.148;-2.144;2022-12-10T15:33:54;6.00;;;1.60;;
27365;SDS011;14837;57.148;-2.144;2022-12-10T15:36:29;4.22;;;1.58;;
27365;SDS011;14837;57.148;-2.144;2022-12-10T15:38:57;4.38;;;3.10;;
27365;SDS011;14837;57.148;-2.144;2022-12-10T15:41:33;8.75;;;5.85;;
27365;SDS011;14837;57.148;-2.144;2022-12-10T15:44:02;7.47;;;5.05;;
27365;SDS011;14837;57.148;-2.144;2022-12-10T15:46:28;10.68;;;7.40;;
27365;SDS011;14837;57.148;-2.144;2022-12-10T15:48:55;11.80;;;8.32;;
27365;SDS011;14837;57.148;-2.144;2022-12-10T15:51:21;89.20;;;29.42;;
27365;SDS011;14837;57.148;-2.144;2022-12-10T15:53:48;43.80;;;15.38;;
27365;SDS011;14837;57.148;-2.144;2022-12-10T15:56:14;18.52;;;9.40;;
27365;SDS011;14837;57.148;-2.144;2022-12-10T15:58:41;14.75;;;6.38;;
27365;SDS011;14837;57.148;-2.144;2022-12-10T16:01:09;21.52;;;10.27;;
27365;SDS011;14837;57.148;-2.144;2022-12-10T16:03:38;35.10;;;17.70;;
27365;SDS011;14837;57.148;-2.144;2022-12-10T16:06:07;9.48;;;4.07;;
27365;SDS011;14837;57.148;-2.144;2022-12-10T16:08:34;8.57;;;3.10;;
27365;SDS011;14837;57.148;-2.144;2022-12-10T16:11:12;5.95;;;3.13;;
27365;SDS011;14837;57.148;-2.144;2022-12-10T16:13:41;9.15;;;3.30;;
27365;SDS011;14837;57.148;-2.144;2022-12-10T16:16:11;4.45;;;3.20;;
27365;SDS011;14837;57.148;-2.144;2022-12-10T16:18:39;4.32;;;2.60;;
27365;SDS011;14837;57.148;-2.144;2022-12-10T16:21:06;4.32;;;3.08;;
27365;SDS011;14837;57.148;-2.144;2022-12-10T16:23:34;6.43;;;4.10;;
27365;SDS011;14837;57.148;-2.144;2022-12-10T16:26:01;7.63;;;3.60;;
27365;SDS011;14837;57.148;-2.144;2022-12-10T16:28:27;4.50;;;2.92;;
27365;SDS011;14837;57.148;-2.144;2022-12-10T16:30:55;3.70;;;2.40;;
27365;SDS011;14837;57.148;-2.144;2022-12-10T16:33:22;4.10;;;1.83;;
27365;SDS011;14837;57.148;-2.144;2022-12-10T16:35:50;8.68;;;3.90;;
27365;SDS011;14837;57.148;-2.144;2022-12-10T16:38:17;3.53;;;2.33;;
27365;SDS011;14837;57.148;-2.144;2022-12-10T16:40:44;5.93;;;1.90;;
27365;SDS011;14837;57.148;-2.144;2022-12-10T16:43:15;8.32;;;2.65;;
27365;SDS011;14837;57.148;-2.144;2022-12-10T16:45:42;4.75;;;2.38;;